Portada
METAR-TAF:

METAR-TAF

Aeropuertos :

Wonderboom Airport

Pretoria, Sudáfrica

latitud: 25-39S, longitud: 028-13E, altitud: 1248 m

Observación

El informe se hizo hace 31 minutos, a las 12:00 UTC
Viento 11 kt del noroeste
Temperatura 22°C
Humedad 31%
Presión 1017 hPa

METAR: FAWB 251200Z AUTO 31011KT //// // ////// 22/04 Q1017

Hora: 14:31 (12:31 UTC)

Pronóstico

El informe se hizo hace 3 horas y 31 minutos, a las 09:00 UTC
Pronóstico válido del 25 a las 10 UTC al 25 a las 18 UTC
Viento 11 kt del noroeste
Visibilidad 10 km o más
sin nubes por debajo de 1500 m y sin presencia de cumulonimbus.

TAF: FAWB 250900Z 2510/2518 32011KT CAVOK TX23/2512Z TN15/2518Z

Observaciones y pronósticos meteorológicos de más de 4000 aeropuertos (mensajes METAR y TAF).

Los puntos amarillos y rojos representan las estaciones disponibles.

Ponga el ratón en el punto deseado para ver el nombre de la estación.

Haga clic para ver las observaciones y los pronósticos meteorológicos.

Para cambiar el mapa : haga clic en los botones verdes con una cruz de color negro para hacer un zoom, en el botón verde con un guión para alejar o en las flechas verdes para mapas adyacentes.


METAR-TAF: